Kezdőlap
METAR-TAF:

METAR-TAF

Repülőterek :

Jackson Municipal Airport

Jackson, Minnesota, Amerikai Egyesült Államok

földrajzi szélesség: 43-39N, földrajzi hosszúság: 094-59W, magasság: 441 m

Jelenlegi meteorológiai megfigyelések

A jelentés 53 perccel ezelõtt készült, 01:55 UTC
Észak-északnyugati szél 6 kt
Hőmérséklet 16°C
Páratartalom 51%
Légköri nyomás 1022 hPa
Látótávolság: 16.1 km
Derült ég

METAR: KMJQ 300155Z AUTO 33006KT 10SM CLR 16/06 A3018 RMK AO2 PWINO

Idő: 21:48 (02:48 UTC)


TAF: hiányzik

Meteorológiai megfigyelések és előrejelzések több, mint 4000 repülőtéren (METAR és TAF jelentéseket).

A térképen piros és sárga pontok jelzik az elérhető meteorológiai állomásokat.

Mozgassa az egeret a pont fölött, hogy megjelenjen az állomás neve.

Azután kattintson az időjárási megfigyelések és előrejelzések megtekintéséhez.

A térkép megváltoztatása: kattintson a fekete keresztel jelölt zöld gombra ráközelítéshez, a vonallal jelölt zöld gombra távolításhoz, vagy a zöld nyilakra a szomszédos térképek eléréséhez.


METAR-TAF: